sensor_id;sensor_type;location;lat;lon;timestamp;P1;durP1;ratioP1;P2;durP2;ratioP2
24157;SDS011;12316;50.904;4.200;2022-08-30T00:00:07;14.63;;;5.10;;
24157;SDS011;12316;50.904;4.200;2022-08-30T00:02:53;16.75;;;5.40;;
24157;SDS011;12316;50.904;4.200;2022-08-30T00:05:18;13.30;;;4.90;;
24157;SDS011;12316;50.904;4.200;2022-08-30T00:07:44;9.82;;;5.15;;
24157;SDS011;12316;50.904;4.200;2022-08-30T00:10:10;10.27;;;4.88;;
24157;SDS011;12316;50.904;4.200;2022-08-30T00:12:36;9.45;;;5.25;;
24157;SDS011;12316;50.904;4.200;2022-08-30T00:15:03;9.52;;;5.30;;
24157;SDS011;12316;50.904;4.200;2022-08-30T00:17:31;15.95;;;5.38;;
24157;SDS011;12316;50.904;4.200;2022-08-30T00:19:57;9.35;;;5.13;;
24157;SDS011;12316;50.904;4.200;2022-08-30T00:22:22;13.50;;;5.38;;
24157;SDS011;12316;50.904;4.200;2022-08-30T00:24:49;13.45;;;5.68;;
24157;SDS011;12316;50.904;4.200;2022-08-30T00:27:15;16.88;;;5.93;;
24157;SDS011;12316;50.904;4.200;2022-08-30T00:29:41;9.98;;;5.53;;
24157;SDS011;12316;50.904;4.200;2022-08-30T00:32:06;13.77;;;6.03;;
24157;SDS011;12316;50.904;4.200;2022-08-30T00:34:32;12.48;;;5.80;;
24157;SDS011;12316;50.904;4.200;2022-08-30T00:36:58;12.27;;;5.55;;
24157;SDS011;12316;50.904;4.200;2022-08-30T00:39:25;12.95;;;5.90;;
24157;SDS011;12316;50.904;4.200;2022-08-30T00:41:51;12.63;;;6.05;;
24157;SDS011;12316;50.904;4.200;2022-08-30T00:44:16;11.93;;;5.88;;
24157;SDS011;12316;50.904;4.200;2022-08-30T00:46:42;13.52;;;5.88;;
24157;SDS011;12316;50.904;4.200;2022-08-30T00:49:08;13.05;;;5.95;;
24157;SDS011;12316;50.904;4.200;2022-08-30T00:51:36;12.90;;;6.00;;
24157;SDS011;12316;50.904;4.200;2022-08-30T00:54:02;12.05;;;5.60;;
24157;SDS011;12316;50.904;4.200;2022-08-30T00:56:28;12.05;;;6.18;;
24157;SDS011;12316;50.904;4.200;2022-08-30T00:58:55;16.83;;;6.13;;
24157;SDS011;12316;50.904;4.200;2022-08-30T01:01:23;13.13;;;6.63;;
24157;SDS011;12316;50.904;4.200;2022-08-30T01:03:49;13.52;;;7.00;;
24157;SDS011;12316;50.904;4.200;2022-08-30T01:06:16;12.70;;;6.95;;
24157;SDS011;12316;50.904;4.200;2022-08-30T01:08:42;13.60;;;6.72;;
24157;SDS011;12316;50.904;4.200;2022-08-30T01:11:09;14.50;;;6.45;;
24157;SDS011;12316;50.904;4.200;2022-08-30T01:13:36;15.20;;;6.68;;
24157;SDS011;12316;50.904;4.200;2022-08-30T01:16:02;18.35;;;7.13;;
24157;SDS011;12316;50.904;4.200;2022-08-30T01:18:29;12.02;;;7.05;;
24157;SDS011;12316;50.904;4.200;2022-08-30T01:21:16;15.77;;;7.20;;
24157;SDS011;12316;50.904;4.200;2022-08-30T01:23:43;13.93;;;7.22;;
24157;SDS011;12316;50.904;4.200;2022-08-30T01:26:11;14.73;;;7.60;;
24157;SDS011;12316;50.904;4.200;2022-08-30T01:28:39;16.38;;;7.18;;
24157;SDS011;12316;50.904;4.200;2022-08-30T01:31:06;15.05;;;7.35;;
24157;SDS011;12316;50.904;4.200;2022-08-30T01:33:32;11.45;;;7.15;;
24157;SDS011;12316;50.904;4.200;2022-08-30T01:36:03;17.90;;;8.27;;
24157;SDS011;12316;50.904;4.200;2022-08-30T01:38:33;15.90;;;7.80;;
24157;SDS011;12316;50.904;4.200;2022-08-30T01:41:15;14.38;;;7.93;;
24157;SDS011;12316;50.904;4.200;2022-08-30T01:43:43;15.77;;;7.38;;
24157;SDS011;12316;50.904;4.200;2022-08-30T01:46:10;15.25;;;7.60;;
24157;SDS011;12316;50.904;4.200;2022-08-30T01:48:37;19.60;;;7.63;;
24157;SDS011;12316;50.904;4.200;2022-08-30T01:51:04;11.63;;;6.93;;
24157;SDS011;12316;50.904;4.200;2022-08-30T01:53:30;19.08;;;7.60;;
24157;SDS011;12316;50.904;4.200;2022-08-30T01:55:56;13.32;;;7.57;;
24157;SDS011;12316;50.904;4.200;2022-08-30T01:58:22;15.48;;;7.82;;
24157;SDS011;12316;50.904;4.200;2022-08-30T02:00:48;21.08;;;8.57;;
24157;SDS011;12316;50.904;4.200;2022-08-30T02:03:14;16.45;;;7.82;;
24157;SDS011;12316;50.904;4.200;2022-08-30T02:05:40;17.48;;;7.93;;
24157;SDS011;12316;50.904;4.200;2022-08-30T02:08:06;13.75;;;8.00;;
24157;SDS011;12316;50.904;4.200;2022-08-30T02:10:32;15.27;;;7.90;;
24157;SDS011;12316;50.904;4.200;2022-08-30T02:12:57;13.65;;;8.02;;
24157;SDS011;12316;50.904;4.200;2022-08-30T02:15:23;13.82;;;8.48;;
24157;SDS011;12316;50.904;4.200;2022-08-30T02:17:49;15.65;;;8.15;;
24157;SDS011;12316;50.904;4.200;2022-08-30T02:20:15;15.20;;;8.52;;
24157;SDS011;12316;50.904;4.200;2022-08-30T02:22:41;15.65;;;8.20;;
24157;SDS011;12316;50.904;4.200;2022-08-30T02:25:07;17.20;;;8.40;;
24157;SDS011;12316;50.904;4.200;2022-08-30T02:27:33;12.57;;;7.93;;
24157;SDS011;12316;50.904;4.200;2022-08-30T02:29:59;14.60;;;8.35;;
24157;SDS011;12316;50.904;4.200;2022-08-30T02:32:25;16.13;;;8.73;;
24157;SDS011;12316;50.904;4.200;2022-08-30T02:34:51;19.73;;;8.57;;
24157;SDS011;12316;50.904;4.200;2022-08-30T02:37:17;14.68;;;8.38;;
24157;SDS011;12316;50.904;4.200;2022-08-30T02:39:44;16.40;;;8.38;;
24157;SDS011;12316;50.904;4.200;2022-08-30T02:42:09;17.33;;;8.25;;
24157;SDS011;12316;50.904;4.200;2022-08-30T02:44:36;14.80;;;8.80;;
24157;SDS011;12316;50.904;4.200;2022-08-30T02:47:02;17.88;;;8.85;;
24157;SDS011;12316;50.904;4.200;2022-08-30T02:49:28;18.20;;;9.15;;
24157;SDS011;12316;50.904;4.200;2022-08-30T02:51:53;14.38;;;8.65;;
24157;SDS011;12316;50.904;4.200;2022-08-30T02:54:19;16.70;;;8.60;;
24157;SDS011;12316;50.904;4.200;2022-08-30T02:56:45;16.92;;;8.70;;
24157;SDS011;12316;50.904;4.200;2022-08-30T02:59:12;15.30;;;9.07;;
24157;SDS011;12316;50.904;4.200;2022-08-30T03:01:39;18.25;;;8.60;;
24157;SDS011;12316;50.904;4.200;2022-08-30T03:04:04;18.55;;;9.45;;
24157;SDS011;12316;50.904;4.200;2022-08-30T03:06:30;14.65;;;9.23;;
24157;SDS011;12316;50.904;4.200;2022-08-30T03:08:56;14.68;;;9.18;;
24157;SDS011;12316;50.904;4.200;2022-08-30T03:11:22;14.25;;;8.98;;
24157;SDS011;12316;50.904;4.200;2022-08-30T03:13:48;17.38;;;9.35;;
24157;SDS011;12316;50.904;4.200;2022-08-30T03:16:16;16.98;;;9.23;;
24157;SDS011;12316;50.904;4.200;2022-08-30T03:18:42;14.70;;;9.63;;
24157;SDS011;12316;50.904;4.200;2022-08-30T03:21:08;16.63;;;9.50;;
24157;SDS011;12316;50.904;4.200;2022-08-30T03:23:39;15.13;;;9.75;;
24157;SDS011;12316;50.904;4.200;2022-08-30T03:26:05;17.25;;;9.57;;
24157;SDS011;12316;50.904;4.200;2022-08-30T03:28:31;17.17;;;9.77;;
24157;SDS011;12316;50.904;4.200;2022-08-30T03:30:57;18.20;;;9.70;;
24157;SDS011;12316;50.904;4.200;2022-08-30T03:33:23;16.33;;;9.77;;
24157;SDS011;12316;50.904;4.200;2022-08-30T03:35:48;15.18;;;9.95;;
24157;SDS011;12316;50.904;4.200;2022-08-30T03:38:14;17.30;;;9.63;;
24157;SDS011;12316;50.904;4.200;2022-08-30T03:40:40;16.70;;;9.20;;
24157;SDS011;12316;50.904;4.200;2022-08-30T03:43:06;16.95;;;9.90;;
24157;SDS011;12316;50.904;4.200;2022-08-30T03:45:32;14.13;;;9.10;;
24157;SDS011;12316;50.904;4.200;2022-08-30T03:47:58;13.20;;;8.82;;
24157;SDS011;12316;50.904;4.200;2022-08-30T03:50:24;17.83;;;9.48;;
24157;SDS011;12316;50.904;4.200;2022-08-30T03:52:50;17.17;;;9.15;;
24157;SDS011;12316;50.904;4.200;2022-08-30T03:55:16;15.23;;;9.38;;
24157;SDS011;12316;50.904;4.200;2022-08-30T03:57:41;13.98;;;9.65;;
24157;SDS011;12316;50.904;4.200;2022-08-30T04:00:07;15.27;;;9.75;;
24157;SDS011;12316;50.904;4.200;2022-08-30T04:02:34;19.25;;;9.50;;
24157;SDS011;12316;50.904;4.200;2022-08-30T04:05:00;17.55;;;9.75;;
24157;SDS011;12316;50.904;4.200;2022-08-30T04:07:26;15.23;;;9.80;;
24157;SDS011;12316;50.904;4.200;2022-08-30T04:09:51;19.25;;;9.95;;
24157;SDS011;12316;50.904;4.200;2022-08-30T04:12:17;21.60;;;10.02;;
24157;SDS011;12316;50.904;4.200;2022-08-30T04:14:42;14.90;;;9.80;;
24157;SDS011;12316;50.904;4.200;2022-08-30T04:17:08;16.60;;;10.05;;
24157;SDS011;12316;50.904;4.200;2022-08-30T04:19:34;13.82;;;9.10;;
24157;SDS011;12316;50.904;4.200;2022-08-30T04:21:59;19.38;;;9.60;;
24157;SDS011;12316;50.904;4.200;2022-08-30T04:24:25;18.80;;;10.00;;
24157;SDS011;12316;50.904;4.200;2022-08-30T04:26:51;14.93;;;9.43;;
24157;SDS011;12316;50.904;4.200;2022-08-30T04:29:16;15.23;;;9.85;;
24157;SDS011;12316;50.904;4.200;2022-08-30T04:31:43;16.08;;;10.07;;
24157;SDS011;12316;50.904;4.200;2022-08-30T04:34:10;18.17;;;10.30;;
24157;SDS011;12316;50.904;4.200;2022-08-30T04:36:37;12.70;;;8.88;;
24157;SDS011;12316;50.904;4.200;2022-08-30T04:39:03;17.52;;;10.10;;
24157;SDS011;12316;50.904;4.200;2022-08-30T04:41:30;16.42;;;9.60;;
24157;SDS011;12316;50.904;4.200;2022-08-30T04:43:55;13.55;;;9.73;;
24157;SDS011;12316;50.904;4.200;2022-08-30T04:46:21;18.77;;;10.07;;
24157;SDS011;12316;50.904;4.200;2022-08-30T04:48:48;12.60;;;10.18;;
24157;SDS011;12316;50.904;4.200;2022-08-30T04:51:15;13.05;;;9.63;;
24157;SDS011;12316;50.904;4.200;2022-08-30T04:53:41;17.95;;;10.07;;
24157;SDS011;12316;50.904;4.200;2022-08-30T04:56:09;19.30;;;11.05;;
24157;SDS011;12316;50.904;4.200;2022-08-30T04:58:36;16.13;;;10.43;;
24157;SDS011;12316;50.904;4.200;2022-08-30T05:01:02;15.93;;;10.20;;
24157;SDS011;12316;50.904;4.200;2022-08-30T05:03:28;17.15;;;10.38;;
24157;SDS011;12316;50.904;4.200;2022-08-30T05:05:55;14.18;;;10.75;;
24157;SDS011;12316;50.904;4.200;2022-08-30T05:08:22;16.02;;;10.23;;
24157;SDS011;12316;50.904;4.200;2022-08-30T05:10:49;21.30;;;11.23;;
24157;SDS011;12316;50.904;4.200;2022-08-30T05:13:17;18.10;;;10.77;;
24157;SDS011;12316;50.904;4.200;2022-08-30T05:15:44;15.77;;;10.52;;
24157;SDS011;12316;50.904;4.200;2022-08-30T05:18:11;15.85;;;10.73;;
24157;SDS011;12316;50.904;4.200;2022-08-30T05:20:37;16.73;;;10.93;;
24157;SDS011;12316;50.904;4.200;2022-08-30T05:23:04;16.83;;;10.77;;
24157;SDS011;12316;50.904;4.200;2022-08-30T05:25:31;15.13;;;11.38;;
24157;SDS011;12316;50.904;4.200;2022-08-30T05:28:00;16.38;;;10.65;;
24157;SDS011;12316;50.904;4.200;2022-08-30T05:30:26;16.33;;;10.93;;
24157;SDS011;12316;50.904;4.200;2022-08-30T05:32:52;17.58;;;11.07;;
24157;SDS011;12316;50.904;4.200;2022-08-30T05:35:18;15.82;;;11.10;;
24157;SDS011;12316;50.904;4.200;2022-08-30T05:37:46;17.90;;;11.18;;
24157;SDS011;12316;50.904;4.200;2022-08-30T05:40:12;16.92;;;10.68;;
24157;SDS011;12316;50.904;4.200;2022-08-30T05:42:41;16.13;;;10.85;;
24157;SDS011;12316;50.904;4.200;2022-08-30T05:45:08;20.88;;;10.70;;
24157;SDS011;12316;50.904;4.200;2022-08-30T05:47:34;14.38;;;10.60;;
24157;SDS011;12316;50.904;4.200;2022-08-30T05:50:00;13.57;;;10.10;;
24157;SDS011;12316;50.904;4.200;2022-08-30T05:52:26;14.65;;;10.18;;
24157;SDS011;12316;50.904;4.200;2022-08-30T05:54:52;15.52;;;9.52;;
24157;SDS011;12316;50.904;4.200;2022-08-30T05:57:20;14.38;;;10.18;;
24157;SDS011;12316;50.904;4.200;2022-08-30T05:59:47;12.02;;;8.98;;
24157;SDS011;12316;50.904;4.200;2022-08-30T06:02:12;14.10;;;8.70;;
24157;SDS011;12316;50.904;4.200;2022-08-30T06:04:38;12.20;;;8.57;;
24157;SDS011;12316;50.904;4.200;2022-08-30T06:07:04;11.85;;;8.80;;
24157;SDS011;12316;50.904;4.200;2022-08-30T06:09:30;14.63;;;9.43;;
24157;SDS011;12316;50.904;4.200;2022-08-30T06:11:55;14.00;;;9.43;;
24157;SDS011;12316;50.904;4.200;2022-08-30T06:14:21;13.10;;;9.73;;
24157;SDS011;12316;50.904;4.200;2022-08-30T06:16:47;13.88;;;9.35;;
24157;SDS011;12316;50.904;4.200;2022-08-30T06:19:13;12.93;;;9.60;;
24157;SDS011;12316;50.904;4.200;2022-08-30T06:21:40;15.40;;;10.02;;
24157;SDS011;12316;50.904;4.200;2022-08-30T06:24:08;11.75;;;8.65;;
24157;SDS011;12316;50.904;4.200;2022-08-30T06:26:37;10.40;;;8.57;;
24157;SDS011;12316;50.904;4.200;2022-08-30T06:29:05;13.98;;;9.57;;
24157;SDS011;12316;50.904;4.200;2022-08-30T06:31:32;14.93;;;9.43;;
24157;SDS011;12316;50.904;4.200;2022-08-30T06:33:58;10.27;;;8.70;;
24157;SDS011;12316;50.904;4.200;2022-08-30T06:36:24;11.38;;;9.43;;
24157;SDS011;12316;50.904;4.200;2022-08-30T06:38:51;12.52;;;9.07;;
24157;SDS011;12316;50.904;4.200;2022-08-30T06:41:19;16.75;;;8.82;;
24157;SDS011;12316;50.904;4.200;2022-08-30T06:43:46;11.40;;;9.63;;
24157;SDS011;12316;50.904;4.200;2022-08-30T06:46:13;15.57;;;9.70;;
24157;SDS011;12316;50.904;4.200;2022-08-30T06:48:42;13.85;;;10.02;;
24157;SDS011;12316;50.904;4.200;2022-08-30T06:51:08;17.10;;;8.88;;
24157;SDS011;12316;50.904;4.200;2022-08-30T06:53:34;13.32;;;10.30;;
24157;SDS011;12316;50.904;4.200;2022-08-30T06:56:04;14.40;;;10.10;;
24157;SDS011;12316;50.904;4.200;2022-08-30T06:58:32;10.77;;;9.27;;
24157;SDS011;12316;50.904;4.200;2022-08-30T07:00:59;12.30;;;9.73;;
24157;SDS011;12316;50.904;4.200;2022-08-30T07:03:25;13.23;;;10.05;;
24157;SDS011;12316;50.904;4.200;2022-08-30T07:05:51;12.27;;;9.75;;
24157;SDS011;12316;50.904;4.200;2022-08-30T07:08:17;14.02;;;10.38;;
24157;SDS011;12316;50.904;4.200;2022-08-30T07:10:43;14.80;;;9.70;;
24157;SDS011;12316;50.904;4.200;2022-08-30T07:13:10;12.63;;;9.48;;
24157;SDS011;12316;50.904;4.200;2022-08-30T07:15:38;15.25;;;9.70;;
24157;SDS011;12316;50.904;4.200;2022-08-30T07:18:06;15.27;;;10.63;;
24157;SDS011;12316;50.904;4.200;2022-08-30T07:20:50;13.00;;;10.05;;
24157;SDS011;12316;50.904;4.200;2022-08-30T07:23:16;14.32;;;9.43;;
24157;SDS011;12316;50.904;4.200;2022-08-30T07:25:42;12.20;;;8.50;;
24157;SDS011;12316;50.904;4.200;2022-08-30T07:28:08;12.05;;;9.75;;
24157;SDS011;12316;50.904;4.200;2022-08-30T07:30:35;12.50;;;9.02;;
24157;SDS011;12316;50.904;4.200;2022-08-30T07:33:01;17.00;;;9.65;;
24157;SDS011;12316;50.904;4.200;2022-08-30T07:35:28;18.40;;;10.27;;
24157;SDS011;12316;50.904;4.200;2022-08-30T07:37:54;14.60;;;9.30;;
24157;SDS011;12316;50.904;4.200;2022-08-30T07:40:19;13.82;;;9.23;;
24157;SDS011;12316;50.904;4.200;2022-08-30T07:42:45;12.07;;;9.07;;
24157;SDS011;12316;50.904;4.200;2022-08-30T07:45:12;15.05;;;9.38;;
24157;SDS011;12316;50.904;4.200;2022-08-30T07:47:37;13.02;;;9.02;;
24157;SDS011;12316;50.904;4.200;2022-08-30T07:50:04;10.63;;;8.95;;
24157;SDS011;12316;50.904;4.200;2022-08-30T07:52:30;16.05;;;8.65;;
24157;SDS011;12316;50.904;4.200;2022-08-30T07:54:56;14.73;;;8.90;;
24157;SDS011;12316;50.904;4.200;2022-08-30T07:57:23;12.40;;;8.90;;
24157;SDS011;12316;50.904;4.200;2022-08-30T07:59:49;12.25;;;8.70;;
24157;SDS011;12316;50.904;4.200;2022-08-30T08:02:15;14.13;;;8.80;;
24157;SDS011;12316;50.904;4.200;2022-08-30T08:04:41;9.73;;;8.52;;
24157;SDS011;12316;50.904;4.200;2022-08-30T08:07:07;13.15;;;9.23;;
24157;SDS011;12316;50.904;4.200;2022-08-30T08:09:34;11.55;;;8.32;;
24157;SDS011;12316;50.904;4.200;2022-08-30T08:12:02;10.90;;;8.40;;
24157;SDS011;12316;50.904;4.200;2022-08-30T08:14:29;11.90;;;7.90;;
24157;SDS011;12316;50.904;4.200;2022-08-30T08:16:55;11.15;;;8.27;;
24157;SDS011;12316;50.904;4.200;2022-08-30T08:19:21;11.88;;;8.10;;
24157;SDS011;12316;50.904;4.200;2022-08-30T08:21:47;14.45;;;8.45;;
24157;SDS011;12316;50.904;4.200;2022-08-30T08:24:12;18.35;;;8.27;;
24157;SDS011;12316;50.904;4.200;2022-08-30T08:26:39;11.73;;;7.97;;
24157;SDS011;12316;50.904;4.200;2022-08-30T08:29:05;14.50;;;7.97;;
24157;SDS011;12316;50.904;4.200;2022-08-30T08:31:32;12.35;;;8.32;;
24157;SDS011;12316;50.904;4.200;2022-08-30T08:33:57;12.63;;;8.23;;
24157;SDS011;12316;50.904;4.200;2022-08-30T08:36:24;11.90;;;7.53;;
24157;SDS011;12316;50.904;4.200;2022-08-30T08:38:51;9.35;;;8.25;;
24157;SDS011;12316;50.904;4.200;2022-08-30T08:41:39;10.02;;;7.63;;
24157;SDS011;12316;50.904;4.200;2022-08-30T08:47:09;12.50;;;8.35;;
24157;SDS011;12316;50.904;4.200;2022-08-30T08:49:45;11.63;;;7.38;;
24157;SDS011;12316;50.904;4.200;2022-08-30T08:52:23;8.65;;;7.13;;
24157;SDS011;12316;50.904;4.200;2022-08-30T08:55:14;10.70;;;7.72;;
24157;SDS011;12316;50.904;4.200;2022-08-30T08:57:43;16.25;;;7.50;;
24157;SDS011;12316;50.904;4.200;2022-08-30T09:00:09;13.30;;;8.00;;
24157;SDS011;12316;50.904;4.200;2022-08-30T09:02:47;13.27;;;7.70;;
24157;SDS011;12316;50.904;4.200;2022-08-30T09:05:34;10.82;;;7.55;;
24157;SDS011;12316;50.904;4.200;2022-08-30T09:08:04;12.18;;;7.38;;
24157;SDS011;12316;50.904;4.200;2022-08-30T09:10:32;11.85;;;7.07;;
24157;SDS011;12316;50.904;4.200;2022-08-30T09:12:58;13.13;;;7.28;;
24157;SDS011;12316;50.904;4.200;2022-08-30T09:15:28;10.82;;;7.22;;
24157;SDS011;12316;50.904;4.200;2022-08-30T09:17:58;10.88;;;7.35;;
24157;SDS011;12316;50.904;4.200;2022-08-30T09:20:45;11.50;;;7.82;;
24157;SDS011;12316;50.904;4.200;2022-08-30T09:25:42;15.43;;;7.85;;
24157;SDS011;12316;50.904;4.200;2022-08-30T09:28:28;10.68;;;7.22;;
24157;SDS011;12316;50.904;4.200;2022-08-30T09:31:02;11.27;;;6.32;;
24157;SDS011;12316;50.904;4.200;2022-08-30T09:33:28;13.43;;;6.55;;
24157;SDS011;12316;50.904;4.200;2022-08-30T09:35:54;11.68;;;6.50;;
24157;SDS011;12316;50.904;4.200;2022-08-30T09:38:27;9.13;;;6.68;;
24157;SDS011;12316;50.904;4.200;2022-08-30T09:40:57;10.80;;;6.53;;
24157;SDS011;12316;50.904;4.200;2022-08-30T09:43:26;8.85;;;6.20;;
24157;SDS011;12316;50.904;4.200;2022-08-30T09:48:29;10.38;;;6.05;;
24157;SDS011;12316;50.904;4.200;2022-08-30T09:53:42;16.02;;;6.82;;
24157;SDS011;12316;50.904;4.200;2022-08-30T10:02:31;11.77;;;5.75;;
24157;SDS011;12316;50.904;4.200;2022-08-30T10:05:24;10.70;;;5.30;;
24157;SDS011;12316;50.904;4.200;2022-08-30T10:08:04;7.45;;;5.05;;
24157;SDS011;12316;50.904;4.200;2022-08-30T10:21:14;13.63;;;4.70;;
24157;SDS011;12316;50.904;4.200;2022-08-30T10:24:02;11.73;;;4.57;;
24157;SDS011;12316;50.904;4.200;2022-08-30T10:29:50;13.65;;;4.35;;
24157;SDS011;12316;50.904;4.200;2022-08-30T10:34:36;11.50;;;4.35;;
24157;SDS011;12316;50.904;4.200;2022-08-30T10:37:39;11.02;;;4.38;;
24157;SDS011;12316;50.904;4.200;2022-08-30T10:40:03;12.27;;;4.05;;
24157;SDS011;12316;50.904;4.200;2022-08-30T10:42:53;11.70;;;4.20;;
24157;SDS011;12316;50.904;4.200;2022-08-30T10:45:22;7.57;;;3.88;;
24157;SDS011;12316;50.904;4.200;2022-08-30T10:50:34;9.15;;;4.40;;
24157;SDS011;12316;50.904;4.200;2022-08-30T10:53:13;9.27;;;4.50;;
24157;SDS011;12316;50.904;4.200;2022-08-30T10:55:48;10.07;;;3.80;;
24157;SDS011;12316;50.904;4.200;2022-08-30T10:58:24;8.82;;;3.80;;
24157;SDS011;12316;50.904;4.200;2022-08-30T11:04:07;11.80;;;3.78;;
24157;SDS011;12316;50.904;4.200;2022-08-30T11:12:35;10.73;;;4.38;;
24157;SDS011;12316;50.904;4.200;2022-08-30T11:15:24;8.40;;;3.60;;
24157;SDS011;12316;50.904;4.200;2022-08-30T11:18:11;8.25;;;2.95;;
24157;SDS011;12316;50.904;4.200;2022-08-30T11:20:42;12.07;;;3.70;;
24157;SDS011;12316;50.904;4.200;2022-08-30T11:31:30;9.20;;;3.70;;
24157;SDS011;12316;50.904;4.200;2022-08-30T11:33:59;10.55;;;3.85;;
24157;SDS011;12316;50.904;4.200;2022-08-30T11:41:29;8.30;;;3.60;;
24157;SDS011;12316;50.904;4.200;2022-08-30T11:44:42;10.98;;;3.78;;
24157;SDS011;12316;50.904;4.200;2022-08-30T11:46:56;11.55;;;3.47;;
24157;SDS011;12316;50.904;4.200;2022-08-30T11:49:34;8.10;;;4.18;;
24157;SDS011;12316;50.904;4.200;2022-08-30T12:00:51;5.95;;;3.53;;
24157;SDS011;12316;50.904;4.200;2022-08-30T12:03:53;6.65;;;3.25;;
24157;SDS011;12316;50.904;4.200;2022-08-30T12:20:37;8.75;;;3.80;;
24157;SDS011;12316;50.904;4.200;2022-08-30T12:26:09;12.82;;;3.97;;
24157;SDS011;12316;50.904;4.200;2022-08-30T12:28:38;10.75;;;4.03;;
24157;SDS011;12316;50.904;4.200;2022-08-30T12:31:10;13.75;;;3.70;;
24157;SDS011;12316;50.904;4.200;2022-08-30T12:33:40;14.48;;;4.20;;
24157;SDS011;12316;50.904;4.200;2022-08-30T12:36:12;9.30;;;4.00;;
24157;SDS011;12316;50.904;4.200;2022-08-30T12:39:09;9.52;;;3.80;;
24157;SDS011;12316;50.904;4.200;2022-08-30T12:41:39;19.40;;;4.53;;
24157;SDS011;12316;50.904;4.200;2022-08-30T12:44:07;6.65;;;3.78;;
24157;SDS011;12316;50.904;4.200;2022-08-30T12:46:38;9.38;;;3.85;;
24157;SDS011;12316;50.904;4.200;2022-08-30T12:49:07;8.90;;;3.25;;
24157;SDS011;12316;50.904;4.200;2022-08-30T12:54:02;7.75;;;3.65;;
24157;SDS011;12316;50.904;4.200;2022-08-30T12:56:48;8.68;;;3.50;;
24157;SDS011;12316;50.904;4.200;2022-08-30T13:02:15;7.35;;;3.85;;
24157;SDS011;12316;50.904;4.200;2022-08-30T13:04:41;11.27;;;4.05;;
24157;SDS011;12316;50.904;4.200;2022-08-30T13:07:08;5.47;;;3.40;;
24157;SDS011;12316;50.904;4.200;2022-08-30T13:09:35;9.85;;;3.60;;
24157;SDS011;12316;50.904;4.200;2022-08-30T13:12:07;10.48;;;3.17;;
24157;SDS011;12316;50.904;4.200;2022-08-30T13:14:49;14.23;;;3.75;;
24157;SDS011;12316;50.904;4.200;2022-08-30T13:19:44;17.60;;;4.60;;
24157;SDS011;12316;50.904;4.200;2022-08-30T13:22:32;6.35;;;3.60;;
24157;SDS011;12316;50.904;4.200;2022-08-30T13:25:01;10.13;;;3.33;;
24157;SDS011;12316;50.904;4.200;2022-08-30T13:27:29;7.07;;;3.10;;
24157;SDS011;12316;50.904;4.200;2022-08-30T13:29:55;8.95;;;3.58;;
24157;SDS011;12316;50.904;4.200;2022-08-30T13:32:22;11.02;;;3.55;;
24157;SDS011;12316;50.904;4.200;2022-08-30T13:34:48;9.98;;;3.05;;
24157;SDS011;12316;50.904;4.200;2022-08-30T13:37:16;11.65;;;3.30;;
24157;SDS011;12316;50.904;4.200;2022-08-30T13:39:47;13.45;;;3.25;;
24157;SDS011;12316;50.904;4.200;2022-08-30T13:42:13;9.55;;;3.38;;
24157;SDS011;12316;50.904;4.200;2022-08-30T13:44:39;10.95;;;3.00;;
24157;SDS011;12316;50.904;4.200;2022-08-30T13:47:05;9.15;;;3.60;;
24157;SDS011;12316;50.904;4.200;2022-08-30T13:49:34;10.55;;;3.15;;
24157;SDS011;12316;50.904;4.200;2022-08-30T13:52:04;5.95;;;2.70;;
24157;SDS011;12316;50.904;4.200;2022-08-30T13:54:32;6.93;;;2.60;;
24157;SDS011;12316;50.904;4.200;2022-08-30T13:56:57;9.35;;;3.00;;
24157;SDS011;12316;50.904;4.200;2022-08-30T13:59:23;9.55;;;2.50;;
24157;SDS011;12316;50.904;4.200;2022-08-30T14:01:51;12.88;;;3.28;;
24157;SDS011;12316;50.904;4.200;2022-08-30T14:04:18;10.20;;;3.25;;
24157;SDS011;12316;50.904;4.200;2022-08-30T14:06:44;6.38;;;2.75;;
24157;SDS011;12316;50.904;4.200;2022-08-30T14:09:10;6.57;;;2.60;;
24157;SDS011;12316;50.904;4.200;2022-08-30T14:11:38;6.47;;;2.90;;
24157;SDS011;12316;50.904;4.200;2022-08-30T14:14:05;10.90;;;2.88;;
24157;SDS011;12316;50.904;4.200;2022-08-30T14:16:31;8.00;;;2.80;;
24157;SDS011;12316;50.904;4.200;2022-08-30T14:18:58;10.35;;;2.75;;
24157;SDS011;12316;50.904;4.200;2022-08-30T14:21:24;5.15;;;2.28;;
24157;SDS011;12316;50.904;4.200;2022-08-30T14:23:55;9.63;;;2.65;;
24157;SDS011;12316;50.904;4.200;2022-08-30T14:26:23;10.27;;;2.92;;
24157;SDS011;12316;50.904;4.200;2022-08-30T14:29:02;7.10;;;2.70;;
24157;SDS011;12316;50.904;4.200;2022-08-30T14:31:30;8.10;;;2.80;;
24157;SDS011;12316;50.904;4.200;2022-08-30T14:33:56;8.00;;;2.60;;
24157;SDS011;12316;50.904;4.200;2022-08-30T14:36:21;7.53;;;2.70;;
24157;SDS011;12316;50.904;4.200;2022-08-30T14:38:47;10.80;;;2.70;;
24157;SDS011;12316;50.904;4.200;2022-08-30T14:41:13;8.27;;;2.80;;
24157;SDS011;12316;50.904;4.200;2022-08-30T14:43:39;6.47;;;2.47;;
24157;SDS011;12316;50.904;4.200;2022-08-30T14:46:05;7.45;;;2.50;;
24157;SDS011;12316;50.904;4.200;2022-08-30T14:48:31;6.65;;;2.35;;
24157;SDS011;12316;50.904;4.200;2022-08-30T14:50:57;8.60;;;2.60;;
24157;SDS011;12316;50.904;4.200;2022-08-30T14:53:23;7.88;;;2.80;;
24157;SDS011;12316;50.904;4.200;2022-08-30T14:55:49;6.90;;;2.33;;
24157;SDS011;12316;50.904;4.200;2022-08-30T14:58:15;2.97;;;2.20;;
24157;SDS011;12316;50.904;4.200;2022-08-30T15:00:42;9.93;;;2.92;;
24157;SDS011;12316;50.904;4.200;2022-08-30T15:03:13;6.53;;;2.35;;
24157;SDS011;12316;50.904;4.200;2022-08-30T15:05:39;4.68;;;2.40;;
24157;SDS011;12316;50.904;4.200;2022-08-30T15:08:06;10.73;;;2.65;;
24157;SDS011;12316;50.904;4.200;2022-08-30T15:10:31;9.10;;;2.58;;
24157;SDS011;12316;50.904;4.200;2022-08-30T15:12:59;6.00;;;2.70;;
24157;SDS011;12316;50.904;4.200;2022-08-30T15:15:25;8.00;;;2.53;;
24157;SDS011;12316;50.904;4.200;2022-08-30T15:17:51;8.82;;;2.30;;
24157;SDS011;12316;50.904;4.200;2022-08-30T15:20:16;6.00;;;2.10;;
24157;SDS011;12316;50.904;4.200;2022-08-30T15:22:43;5.80;;;2.50;;
24157;SDS011;12316;50.904;4.200;2022-08-30T15:25:10;19.25;;;2.50;;
24157;SDS011;12316;50.904;4.200;2022-08-30T15:27:36;6.28;;;2.47;;
24157;SDS011;12316;50.904;4.200;2022-08-30T15:30:02;5.28;;;2.05;;
24157;SDS011;12316;50.904;4.200;2022-08-30T15:32:28;7.47;;;2.15;;
24157;SDS011;12316;50.904;4.200;2022-08-30T15:34:54;6.45;;;2.58;;
24157;SDS011;12316;50.904;4.200;2022-08-30T15:37:21;6.97;;;2.30;;
24157;SDS011;12316;50.904;4.200;2022-08-30T15:39:50;7.65;;;2.58;;
24157;SDS011;12316;50.904;4.200;2022-08-30T15:42:18;8.52;;;2.45;;
24157;SDS011;12316;50.904;4.200;2022-08-30T15:44:45;5.68;;;2.20;;
24157;SDS011;12316;50.904;4.200;2022-08-30T15:47:18;5.15;;;2.40;;
24157;SDS011;12316;50.904;4.200;2022-08-30T15:49:47;7.10;;;2.20;;
24157;SDS011;12316;50.904;4.200;2022-08-30T15:52:22;9.77;;;2.08;;
24157;SDS011;12316;50.904;4.200;2022-08-30T15:54:48;9.93;;;2.50;;
24157;SDS011;12316;50.904;4.200;2022-08-30T15:57:14;5.25;;;2.28;;
24157;SDS011;12316;50.904;4.200;2022-08-30T15:59:40;5.95;;;2.10;;
24157;SDS011;12316;50.904;4.200;2022-08-30T16:02:05;5.28;;;2.47;;
24157;SDS011;12316;50.904;4.200;2022-08-30T16:04:31;3.92;;;2.08;;
24157;SDS011;12316;50.904;4.200;2022-08-30T16:06:57;8.55;;;2.33;;
24157;SDS011;12316;50.904;4.200;2022-08-30T16:09:23;5.78;;;2.38;;
24157;SDS011;12316;50.904;4.200;2022-08-30T16:11:48;3.97;;;1.95;;
24157;SDS011;12316;50.904;4.200;2022-08-30T16:14:14;9.73;;;2.40;;